createdAt,value
2022-11-27T00:13:57.454Z,1.8
2022-11-27T00:27:57.576Z,2.0
2022-11-27T00:41:57.543Z,2.8
2022-11-27T00:55:57.624Z,2.3
2022-11-27T01:09:57.645Z,2.9
2022-11-27T01:23:57.692Z,2.7
2022-11-27T01:37:57.755Z,2.0
2022-11-27T01:51:57.948Z,1.8
2022-11-27T02:05:58.073Z,1.5
2022-11-27T02:19:58.143Z,1.1
2022-11-27T02:33:58.176Z,1.3
2022-11-27T02:47:58.182Z,1.6
2022-11-27T03:01:58.418Z,1.2
2022-11-27T03:15:58.267Z,1.2
2022-11-27T03:29:58.186Z,1.1
2022-11-27T03:43:58.277Z,1.3
2022-11-27T03:57:58.235Z,1.2
2022-11-27T04:11:58.298Z,1.3
2022-11-27T04:25:58.235Z,1.3
2022-11-27T04:39:58.259Z,1.4
2022-11-27T04:53:58.254Z,1.2
2022-11-27T05:07:58.279Z,1.1
2022-11-27T05:21:58.237Z,1.0
2022-11-27T05:35:58.263Z,1.2
2022-11-27T05:49:58.289Z,1.2
2022-11-27T06:03:58.365Z,1.0
2022-11-27T06:17:58.463Z,1.2
2022-11-27T06:32:58.487Z,1.5
2022-11-27T06:47:58.448Z,1.1
2022-11-27T07:02:58.454Z,1.4
2022-11-27T07:17:58.677Z,1.5
2022-11-27T07:33:58.445Z,1.7
2022-11-27T07:48:58.537Z,4.1
2022-11-27T08:03:58.666Z,5.8
2022-11-27T08:18:58.656Z,7.7
2022-11-27T08:33:58.661Z,8.1
2022-11-27T08:48:58.699Z,10.6
2022-11-27T09:03:58.821Z,9.8
2022-11-27T09:18:58.667Z,10.7
2022-11-27T09:33:58.680Z,11.3
2022-11-27T09:48:58.723Z,11.3
2022-11-27T10:03:58.722Z,11.1
2022-11-27T10:18:58.759Z,11.5
2022-11-27T10:33:58.792Z,11.7
2022-11-27T10:48:59.036Z,11.4
2022-11-27T11:03:59.024Z,11.6
2022-11-27T11:18:59.011Z,11.7
2022-11-27T11:33:59.032Z,12.1
2022-11-27T11:48:59.043Z,12.1
2022-11-27T12:03:59.075Z,12.5
2022-11-27T12:18:59.253Z,12.5
2022-11-27T12:34:59.200Z,12.9
2022-11-27T12:49:59.221Z,12.9
2022-11-27T13:04:59.241Z,13.4
2022-11-27T13:19:59.282Z,13.5
2022-11-27T13:34:59.269Z,13.6
2022-11-27T13:49:59.252Z,13.6
2022-11-27T14:04:59.274Z,13.5
2022-11-27T14:19:59.446Z,13.2
2022-11-27T14:34:59.482Z,12.8
2022-11-27T14:49:59.513Z,12.5
2022-11-27T15:04:59.538Z,10.0
2022-11-27T15:20:59.582Z,7.1
2022-11-27T15:35:59.570Z,5.8
2022-11-27T15:50:59.671Z,5.6
2022-11-27T16:06:59.753Z,5.2
2022-11-27T16:13:53.423Z,5.1
2022-11-27T16:27:55.711Z,4.6
2022-11-27T16:41:53.205Z,4.5
2022-11-27T16:55:53.559Z,4.5
2022-11-27T17:09:53.697Z,3.6
2022-11-27T17:23:53.766Z,3.4
2022-11-27T17:37:53.768Z,3.3
2022-11-27T17:51:53.769Z,3.0
2022-11-27T18:05:53.879Z,3.0
2022-11-27T18:19:54.078Z,2.9
2022-11-27T18:33:54.093Z,2.9
2022-11-27T18:47:54.043Z,2.8
2022-11-27T19:01:54.123Z,3.0
2022-11-27T19:15:54.058Z,2.7
2022-11-27T19:29:54.086Z,2.5
2022-11-27T19:43:54.054Z,2.4
2022-11-27T19:57:54.245Z,2.3
2022-11-27T20:11:54.289Z,2.1
2022-11-27T20:25:54.360Z,2.3
2022-11-27T20:39:54.482Z,1.7
2022-11-27T20:53:54.499Z,1.8
2022-11-27T21:07:54.501Z,1.5
2022-11-27T21:21:54.550Z,1.2
2022-11-27T21:35:54.593Z,1.5
2022-11-27T21:49:54.613Z,1.9
2022-11-27T22:03:54.660Z,2.5
2022-11-27T22:17:54.649Z,2.3
2022-11-27T22:31:54.613Z,2.0
2022-11-27T22:45:54.671Z,1.9
2022-11-27T22:59:54.765Z,1.9
2022-11-27T23:13:54.798Z,1.6
2022-11-27T23:27:54.850Z,1.8
2022-11-27T23:41:54.803Z,2.1
2022-11-27T23:55:54.805Z,1.9
